Time;durP1;ratioP1;P1;durP2;ratioP2;P2;SDS_P1;SDS_P2;PMS_P1;PMS_P2;Temp;Humidity;BMP_temperature;BMP_pressure;BME280_temperature;BME280_humidity;BME280_pressure;Samples;Min_cycle;Max_cycle;Signal;HPM_P1;HPM_P2
2023/01/16 00:01:24;;;;;;;33.23;17.67;;;;;;;6.49;100.00;99494.00;5071103;28;20196;-60
2023/01/16 00:03:51;;;;;;;30.93;17.60;;;;;;;6.48;100.00;99488.88;5070758;28;20220;-60
2023/01/16 00:06:18;;;;;;;30.77;17.60;;;;;;;6.41;100.00;99487.25;5071306;28;20461;-58
2023/01/16 00:08:46;;;;;;;28.90;16.73;;;;;;;6.27;100.00;99479.69;5071245;28;20196;-59
2023/01/16 00:11:14;;;;;;;27.17;16.23;;;;;;;6.34;100.00;99486.44;5068570;28;20195;-59
2023/01/16 00:13:41;;;;;;;31.17;17.03;;;;;;;6.18;100.00;99461.75;5071175;28;20680;-58
2023/01/16 00:16:08;;;;;;;27.40;16.73;;;;;;;6.28;100.00;99480.53;5070806;28;20204;-59
2023/01/16 00:18:35;;;;;;;27.93;16.27;;;;;;;6.24;100.00;99471.97;5070950;28;20611;-57
2023/01/16 00:21:03;;;;;;;29.20;16.87;;;;;;;6.17;100.00;99468.63;5070787;28;20199;-59
2023/01/16 00:23:30;;;;;;;32.87;17.37;;;;;;;6.21;100.00;99479.72;5070627;28;20598;-61
2023/01/16 00:25:57;;;;;;;33.10;18.10;;;;;;;6.05;100.00;99458.47;5070812;28;20192;-60
2023/01/16 00:28:25;;;;;;;32.37;17.57;;;;;;;6.18;100.00;99472.06;5070578;28;20195;-61
2023/01/16 00:30:52;;;;;;;31.43;16.33;;;;;;;6.20;100.00;99470.31;5067589;28;20194;-60
2023/01/16 00:33:19;;;;;;;29.40;17.50;;;;;;;6.15;100.00;99461.78;5070495;28;20213;-61
2023/01/16 00:35:48;;;;;;;33.87;17.17;;;;;;;6.12;100.00;99472.13;5071061;28;20192;-59
2023/01/16 00:38:15;;;;;;;34.50;17.53;;;;;;;6.14;100.00;99472.97;5067871;28;20200;-61
2023/01/16 00:40:42;;;;;;;28.17;17.63;;;;;;;6.11;100.00;99467.81;5070302;28;20198;-60
2023/01/16 00:43:09;;;;;;;29.03;16.77;;;;;;;6.16;100.00;99473.81;5070204;28;20725;-61
2023/01/16 00:45:39;;;;;;;31.43;18.10;;;;;;;6.18;100.00;99461.75;5070077;28;20216;-60
2023/01/16 00:48:06;;;;;;;29.50;17.73;;;;;;;6.09;100.00;99457.56;5070248;28;20204;-60
2023/01/16 00:50:33;;;;;;;33.77;18.63;;;;;;;5.90;100.00;99457.78;5067737;28;20191;-60
2023/01/16 00:53:00;;;;;;;29.80;18.40;;;;;;;5.96;100.00;99465.44;5070385;28;20602;-60
2023/01/16 00:55:27;;;;;;;31.03;18.77;;;;;;;5.93;100.00;99457.75;5069997;28;20207;-60
2023/01/16 00:57:54;;;;;;;32.90;19.57;;;;;;;5.92;100.00;99453.47;5070000;28;20286;-59
2023/01/16 01:00:21;;;;;;;34.23;19.63;;;;;;;5.86;100.00;99451.78;5070026;28;20208;-60
2023/01/16 01:02:50;;;;;;;35.87;19.63;;;;;;;5.72;100.00;99446.78;5070249;28;20597;-61
2023/01/16 01:05:18;;;;;;;38.70;21.43;;;;;;;5.62;100.00;99436.59;5069773;28;20243;-60
2023/01/16 01:07:44;;;;;;;32.17;19.33;;;;;;;5.52;100.00;99433.25;5069998;28;20292;-60
2023/01/16 01:10:11;;;;;;;33.47;20.20;;;;;;;5.65;100.00;99446.84;5069988;28;20204;-60
2023/01/16 01:12:38;;;;;;;31.97;20.00;;;;;;;5.69;100.00;99458.81;5069757;28;20188;-59
2023/01/16 01:15:06;;;;;;;36.17;20.60;;;;;;;5.69;100.00;99454.53;5069702;28;20211;-59
2023/01/16 01:17:33;;;;;;;33.30;19.97;;;;;;;5.67;100.00;99451.09;5067040;28;20632;-58
2023/01/16 01:20:02;;;;;;;30.83;19.77;;;;;;;5.68;100.00;99446.81;5070148;28;20573;-58
2023/01/16 01:22:29;;;;;;;34.77;21.03;;;;;;;5.71;100.00;99441.63;5069496;28;20656;-59
2023/01/16 01:24:56;;;;;;;38.90;21.27;;;;;;;5.79;100.00;99440.69;5069378;28;20733;-60
2023/01/16 01:27:22;;;;;;;35.57;20.70;;;;;;;5.77;100.00;99439.84;5069703;28;20215;-59
2023/01/16 01:29:49;;;;;;;33.40;20.87;;;;;;;5.80;100.00;99437.25;5069739;28;20200;-59
2023/01/16 01:32:16;;;;;;;32.47;19.87;;;;;;;5.78;100.00;99433.81;5069317;28;20196;-59
2023/01/16 01:34:43;;;;;;;35.90;21.40;;;;;;;5.79;100.00;99435.53;5069563;28;20188;-58
2023/01/16 01:37:12;;;;;;;33.00;20.10;;;;;;;5.70;100.00;99425.34;5069209;28;20192;-61
2023/01/16 01:39:38;;;;;;;36.83;21.23;;;;;;;5.74;100.00;99431.31;5069113;28;20184;-61
2023/01/16 01:44:54;;;;;;;32.40;19.83;;;;;;;5.88;100.00;99428.56;5068651;28;20218;-59
2023/01/16 01:47:24;;;;;;;35.60;19.60;;;;;;;5.81;100.00;99432.94;5069279;28;20206;-60
2023/01/16 01:49:53;;;;;;;35.50;19.50;;;;;;;5.84;100.00;99423.47;5069168;28;20582;-59
2023/01/16 01:52:23;;;;;;;36.23;20.23;;;;;;;5.77;100.00;99426.97;5068634;28;20648;-59
2023/01/16 01:54:56;;;;;;;31.90;19.00;;;;;;;5.70;100.00;99414.19;5069051;28;20188;-58
2023/01/16 01:57:28;;;;;;;34.43;20.03;;;;;;;5.82;100.00;99425.19;5068952;28;20188;-58
2023/01/16 01:59:59;;;;;;;31.70;19.57;;;;;;;5.83;100.00;99426.06;5066817;28;20214;-58
2023/01/16 02:02:30;;;;;;;30.63;19.60;;;;;;;5.81;100.00;99423.50;5068898;28;20206;-59
2023/01/16 02:04:57;;;;;;;35.90;20.47;;;;;;;5.73;100.00;99415.00;5066825;28;20226;-59
2023/01/16 02:07:28;;;;;;;31.60;19.67;;;;;;;5.86;100.00;99420.03;5068754;28;20188;-59
2023/01/16 02:10:02;;;;;;;34.03;21.57;;;;;;;5.94;100.00;99419.09;5066897;28;20279;-59
2023/01/16 02:12:30;;;;;;;33.43;19.93;;;;;;;5.89;100.00;99420.84;5068607;28;20248;-57
2023/01/16 02:14:58;;;;;;;36.63;21.50;;;;;;;5.96;100.00;99416.50;5068829;28;20217;-58
2023/01/16 02:20:19;;;;;;;36.40;20.43;;;;;;;5.94;100.00;99415.66;5068275;28;20203;-61
2023/01/16 02:23:26;;;;;;;34.93;20.63;;;;;;;5.90;100.00;99411.41;5068704;28;20192;-58
2023/01/16 02:26:19;;;;;;;38.63;21.53;;;;;;;5.86;100.00;99414.88;5066058;28;20215;-59
2023/01/16 02:29:31;;;;;;;39.30;22.50;;;;;;;5.96;100.00;99411.34;5067840;28;20207;-59
2023/01/16 02:32:10;;;;;;;36.53;19.33;;;;;;;5.98;100.00;99409.63;5060538;28;20210;-58
2023/01/16 02:34:53;;;;;;;35.40;20.50;;;;;;;6.03;100.00;99403.53;5066494;28;20194;-60
2023/01/16 02:37:33;;;;;;;39.73;20.87;;;;;;;6.10;100.00;99419.75;5066944;28;20238;-61
2023/01/16 02:40:13;;;;;;;35.67;19.10;;;;;;;6.11;100.00;99418.88;5066590;28;20192;-59
2023/01/16 02:42:45;;;;;;;41.37;21.90;;;;;;;5.99;100.00;99393.25;5066485;28;20239;-60
2023/01/16 02:45:20;;;;;;;35.00;21.00;;;;;;;6.15;100.00;99423.97;5068561;28;20211;-61
2023/01/16 02:47:59;;;;;;;35.20;20.50;;;;;;;6.21;100.00;99422.22;5068352;28;20202;-59
2023/01/16 02:50:33;;;;;;;33.97;20.07;;;;;;;6.15;100.00;99426.56;5067035;28;20200;-59
2023/01/16 02:53:12;;;;;;;36.53;20.57;;;;;;;6.15;100.00;99428.28;5066697;28;20706;-59
2023/01/16 02:55:46;;;;;;;36.83;20.73;;;;;;;6.11;100.00;99426.59;5066175;28;20183;-59
2023/01/16 02:58:15;;;;;;;35.27;20.73;;;;;;;6.24;100.00;99422.16;5065760;28;20197;-59
2023/01/16 03:00:51;;;;;;;32.17;20.13;;;;;;;6.24;100.00;99412.69;5068148;28;20200;-59
2023/01/16 03:03:40;;;;;;;37.10;21.07;;;;;;;6.31;100.00;99419.50;5066279;28;20691;-59
2023/01/16 03:06:44;;;;;;;34.23;20.40;;;;;;;6.33;100.00;99406.56;5071370;28;20312;-61
2023/01/16 03:09:28;;;;;;;42.37;21.27;;;;;;;6.40;100.00;99403.91;5072370;28;20196;-58
2023/01/16 03:12:11;;;;;;;39.40;21.30;;;;;;;6.30;100.00;99397.16;5069909;28;20192;-59
2023/01/16 03:14:44;;;;;;;40.73;21.67;;;;;;;6.33;100.00;99394.53;5073115;28;20283;-60
2023/01/16 03:17:30;;;;;;;38.50;21.60;;;;;;;6.39;100.00;99389.31;5073439;28;20206;-60
2023/01/16 03:20:12;;;;;;;36.10;20.37;;;;;;;6.51;100.00;99386.56;5073543;28;20804;-61
2023/01/16 03:22:44;;;;;;;36.60;21.20;;;;;;;6.45;100.00;99368.56;5073314;28;20206;-59
2023/01/16 03:25:22;;;;;;;39.43;23.53;;;;;;;6.50;100.00;99384.84;5073482;28;20224;-59
2023/01/16 03:27:59;;;;;;;40.20;23.43;;;;;;;6.40;100.00;99390.16;5073114;28;20644;-60
2023/01/16 03:30:31;;;;;;;43.80;23.00;;;;;;;6.39;100.00;99378.13;5073231;28;20192;-60
2023/01/16 03:33:04;;;;;;;39.90;22.67;;;;;;;6.47;100.00;99379.72;5072295;28;20314;-58
2023/01/16 03:35:35;;;;;;;44.43;24.70;;;;;;;6.46;100.00;99378.03;5072027;28;20241;-61
2023/01/16 03:38:06;;;;;;;42.37;24.70;;;;;;;6.54;100.00;99378.78;5072044;28;20200;-60
2023/01/16 03:40:37;;;;;;;42.03;23.73;;;;;;;6.49;100.00;99369.41;5072665;28;20655;-59
2023/01/16 03:43:09;;;;;;;50.33;26.07;;;;;;;6.50;100.00;99369.38;5072467;28;20231;-59
2023/01/16 03:45:42;;;;;;;44.93;24.73;;;;;;;6.32;100.00;99359.31;5072767;28;20592;-59
2023/01/16 03:48:13;;;;;;;46.20;26.40;;;;;;;6.41;100.00;99364.34;5072780;28;20212;-59
2023/01/16 03:50:45;;;;;;;47.53;25.30;;;;;;;6.45;100.00;99366.00;5072511;28;20796;-59
2023/01/16 03:53:17;;;;;;;42.53;24.23;;;;;;;6.49;100.00;99366.81;5072626;28;20218;-58
2023/01/16 03:55:51;;;;;;;42.77;23.73;;;;;;;6.40;100.00;99357.50;5072851;28;20188;-59
2023/01/16 03:58:24;;;;;;;41.53;23.70;;;;;;;6.35;100.00;99359.28;5072487;28;20195;-59
2023/01/16 04:01:01;;;;;;;36.93;21.80;;;;;;;6.37;100.00;99354.97;5072431;28;20211;-57
2023/01/16 04:03:35;;;;;;;33.10;20.27;;;;;;;6.37;100.00;99351.53;5071924;28;20193;-57
2023/01/16 04:06:12;;;;;;;36.83;20.10;;;;;;;6.26;100.00;99356.84;5072138;28;20230;-58
2023/01/16 04:08:41;;;;;;;43.30;21.53;;;;;;;6.21;100.00;99362.94;5071953;28;20192;-58
2023/01/16 04:11:09;;;;;;;38.70;21.17;;;;;;;6.14;100.00;99349.28;5072086;28;20200;-59
2023/01/16 04:13:40;;;;;;;42.73;24.10;;;;;;;6.20;100.00;99354.34;5072004;28;20218;-59
2023/01/16 04:16:10;;;;;;;54.77;29.30;;;;;;;6.23;100.00;99349.13;5071811;28;20196;-58
2023/01/16 04:18:38;;;;;;;63.47;34.70;;;;;;;6.32;100.00;99343.84;5071932;28;20195;-59
2023/01/16 04:21:07;;;;;;;58.33;29.13;;;;;;;6.32;100.00;99338.69;5072287;28;20196;-58
2023/01/16 04:23:35;;;;;;;45.57;25.43;;;;;;;6.34;100.00;99333.53;5071720;28;20287;-59
2023/01/16 04:26:02;;;;;;;44.73;24.40;;;;;;;6.44;100.00;99323.03;5072479;28;20241;-59
2023/01/16 04:28:29;;;;;;;46.30;24.10;;;;;;;6.49;100.00;99323.84;5071429;28;20253;-59
2023/01/16 04:30:56;;;;;;;43.30;23.93;;;;;;;6.53;100.00;99319.50;5071214;28;20282;-58
2023/01/16 04:33:23;;;;;;;43.27;22.43;;;;;;;6.50;100.00;99322.97;5071597;28;20199;-59
2023/01/16 04:35:50;;;;;;;41.60;22.93;;;;;;;6.40;100.00;99305.94;5071690;28;20198;-59
2023/01/16 04:38:18;;;;;;;39.13;21.73;;;;;;;6.55;100.00;99323.72;5071667;28;20203;-61
2023/01/16 04:40:45;;;;;;;42.97;23.50;;;;;;;6.63;100.00;99315.91;5071736;28;20218;-61
2023/01/16 04:43:12;;;;;;;41.37;23.27;;;;;;;6.56;100.00;99307.38;5071493;28;20311;-58
2023/01/16 04:45:40;;;;;;;42.30;22.97;;;;;;;6.62;100.00;99315.91;5071462;28;20219;-59
2023/01/16 04:48:07;;;;;;;41.63;22.10;;;;;;;6.64;100.00;99309.00;5071280;28;20664;-59
2023/01/16 04:50:34;;;;;;;39.13;22.80;;;;;;;6.60;100.00;99312.50;5071538;28;20199;-59
2023/01/16 04:53:01;;;;;;;40.27;22.23;;;;;;;6.54;100.00;99319.47;5070870;28;20199;-59
2023/01/16 04:55:29;;;;;;;38.40;22.70;;;;;;;6.35;100.00;99310.31;5070680;28;20203;-60
2023/01/16 04:57:56;;;;;;;41.47;21.60;;;;;;;6.35;100.00;99307.72;5071227;28;20668;-60
2023/01/16 05:00:23;;;;;;;39.87;22.80;;;;;;;6.43;100.00;99307.63;5071027;28;20208;-60
2023/01/16 05:02:50;;;;;;;40.53;22.30;;;;;;;6.48;100.00;99304.09;5071244;28;20254;-60
2023/01/16 05:05:17;;;;;;;42.27;22.90;;;;;;;6.46;100.00;99311.00;5071185;28;20220;-58
2023/01/16 05:07:43;;;;;;;45.53;24.00;;;;;;;6.48;100.00;99309.25;5071347;28;20196;-59
2023/01/16 05:10:11;;;;;;;171.67;62.27;;;;;;;6.27;100.00;99314.72;5070986;28;20196;-58
2023/01/16 05:12:39;;;;;;;169.07;61.97;;;;;;;6.24;100.00;99319.91;5070995;28;20219;-59
2023/01/16 05:15:07;;;;;;;143.23;52.17;;;;;;;6.31;100.00;99315.53;5071228;28;20642;-59
2023/01/16 05:17:34;;;;;;;79.57;36.10;;;;;;;6.45;100.00;99317.03;5070994;28;20684;-61
2023/01/16 05:20:01;;;;;;;61.00;28.90;;;;;;;6.54;100.00;99321.19;5070943;28;20192;-61
2023/01/16 05:22:28;;;;;;;46.00;24.93;;;;;;;6.52;100.00;99316.06;5069504;28;20210;-60
2023/01/16 05:24:55;;;;;;;44.07;23.60;;;;;;;6.60;100.00;99308.19;5069631;28;20261;-58
2023/01/16 05:27:22;;;;;;;41.37;22.30;;;;;;;6.63;100.00;99303.00;5069100;28;20291;-58
2023/01/16 05:29:50;;;;;;;43.20;23.10;;;;;;;6.64;100.00;99298.69;5070971;28;20644;-58
2023/01/16 05:32:17;;;;;;;44.50;23.27;;;;;;;6.47;100.00;99296.38;5070553;28;20212;-58
2023/01/16 05:34:44;;;;;;;41.50;23.70;;;;;;;6.45;100.00;99296.41;5070636;28;20279;-59
2023/01/16 05:37:11;;;;;;;43.03;21.40;;;;;;;6.34;100.00;99293.13;5070552;28;20201;-60
2023/01/16 05:39:37;;;;;;;40.97;22.87;;;;;;;6.23;100.00;99289.88;5070350;28;20206;-59
2023/01/16 05:42:20;;;;;;;46.73;23.27;;;;;;;6.30;100.00;99283.75;5069393;28;20196;-59
2023/01/16 05:44:47;;;;;;;42.23;23.23;;;;;;;6.25;100.00;99274.38;5070532;28;20701;-60
2023/01/16 05:47:16;;;;;;;42.40;23.43;;;;;;;6.27;100.00;99278.66;5070342;28;20230;-59
2023/01/16 05:49:43;;;;;;;45.10;24.60;;;;;;;6.29;100.00;99271.75;5070142;28;20196;-60
2023/01/16 05:52:10;;;;;;;39.40;23.80;;;;;;;6.29;100.00;99282.06;5070586;28;20196;-60
2023/01/16 05:54:37;;;;;;;44.97;24.73;;;;;;;6.20;100.00;99287.34;5070135;28;20202;-61
2023/01/16 05:57:04;;;;;;;46.00;24.13;;;;;;;6.22;100.00;99279.56;5070514;28;20210;-60
2023/01/16 05:59:31;;;;;;;43.27;24.60;;;;;;;6.19;100.00;99278.78;5069978;28;20196;-60
2023/01/16 06:01:58;;;;;;;46.80;24.87;;;;;;;6.00;100.00;99253.28;5069994;28;20200;-59
2023/01/16 06:04:26;;;;;;;44.27;24.30;;;;;;;6.19;100.00;99280.50;5069805;28;20226;-59
2023/01/16 06:06:53;;;;;;;49.70;27.10;;;;;;;5.94;100.00;99276.56;5070191;28;20224;-60
2023/01/16 06:09:20;;;;;;;47.40;25.20;;;;;;;6.02;100.00;99277.28;5070145;28;20218;-58
2023/01/16 06:11:46;;;;;;;47.17;24.20;;;;;;;5.97;100.00;99273.94;5070038;28;20202;-59
2023/01/16 06:14:13;;;;;;;44.83;25.00;;;;;;;5.99;100.00;99272.19;5070039;28;20199;-60
2023/01/16 06:16:40;;;;;;;49.17;25.70;;;;;;;6.04;100.00;99278.13;5069735;28;20192;-59
2023/01/16 06:19:07;;;;;;;48.23;25.10;;;;;;;6.04;100.00;99275.56;5070230;28;20684;-60
2023/01/16 06:21:35;;;;;;;47.20;26.53;;;;;;;6.03;100.00;99286.72;5070097;28;20656;-60
2023/01/16 06:24:02;;;;;;;46.87;25.97;;;;;;;6.04;100.00;99275.56;5069818;28;20196;-58
2023/01/16 06:26:29;;;;;;;51.17;26.80;;;;;;;6.04;100.00;99276.41;5069634;28;20259;-60
2023/01/16 06:28:57;;;;;;;49.13;26.43;;;;;;;6.12;100.00;99278.88;5069731;28;20232;-58
2023/01/16 06:31:24;;;;;;;50.67;25.43;;;;;;;6.15;100.00;99279.69;5069241;28;20204;-59
2023/01/16 06:33:51;;;;;;;43.53;24.30;;;;;;;6.19;100.00;99275.34;5068555;28;20204;-58
2023/01/16 06:36:18;;;;;;;43.60;23.23;;;;;;;6.17;100.00;99279.66;5069953;28;20202;-60
2023/01/16 06:38:46;;;;;;;46.10;23.93;;;;;;;6.17;100.00;99277.09;5069336;28;20199;-60
2023/01/16 06:41:13;;;;;;;39.70;23.23;;;;;;;6.34;100.00;99271.66;5069838;28;20188;-59
2023/01/16 06:43:40;;;;;;;45.13;24.07;;;;;;;6.38;100.00;99271.59;5069219;28;20227;-58
2023/01/16 06:46:07;;;;;;;43.50;25.13;;;;;;;6.46;100.00;99271.47;5069592;28;20591;-62
2023/01/16 06:48:34;;;;;;;44.83;25.87;;;;;;;6.41;100.00;99268.97;5069594;28;20202;-62
2023/01/16 06:51:01;;;;;;;49.13;25.50;;;;;;;6.48;100.00;99262.84;5069975;28;20625;-61
2023/01/16 06:53:28;;;;;;;54.67;28.00;;;;;;;6.54;100.00;99269.63;5062763;28;20220;-61
2023/01/16 06:55:56;;;;;;;50.77;28.37;;;;;;;6.60;100.00;99271.25;5051087;28;20303;-59
2023/01/16 06:58:23;;;;;;;45.63;25.90;;;;;;;6.70;100.00;99268.47;5064476;28;20605;-59
2023/01/16 07:00:51;;;;;;;42.07;23.43;;;;;;;6.63;100.00;99261.75;5067984;28;20584;-61
2023/01/16 07:03:18;;;;;;;36.87;21.27;;;;;;;6.62;100.00;99261.75;5067609;28;20219;-61
2023/01/16 07:05:46;;;;;;;34.10;20.53;;;;;;;6.69;100.00;99260.78;5067799;28;20807;-60
2023/01/16 07:08:14;;;;;;;41.97;22.50;;;;;;;6.60;100.00;99255.78;5065075;28;20299;-60
2023/01/16 07:10:41;;;;;;;36.87;21.17;;;;;;;6.68;100.00;99253.91;5068193;28;20211;-61
2023/01/16 07:13:10;;;;;;;35.70;19.63;;;;;;;6.64;100.00;99242.81;5066743;28;20200;-61
2023/01/16 07:23:59;;;;;;;40.87;22.73;;;;;;;6.74;100.00;99213.41;5069513;28;20622;-63
2023/01/16 07:26:27;;;;;;;39.83;21.77;;;;;;;6.82;100.00;99206.38;5067373;28;20359;-60
2023/01/16 07:28:58;;;;;;;34.17;20.57;;;;;;;6.59;100.00;99199.91;5063013;28;20688;-62
2023/01/16 07:31:25;;;;;;;38.20;20.90;;;;;;;6.45;100.00;99182.97;5068209;28;20207;-62
2023/01/16 07:33:52;;;;;;;38.27;22.17;;;;;;;6.69;100.00;99204.03;5065394;28;20196;-60
2023/01/16 07:36:19;;;;;;;37.13;20.70;;;;;;;6.63;100.00;99196.41;5068036;28;20192;-60
2023/01/16 07:38:46;;;;;;;35.53;20.93;;;;;;;6.75;100.00;99203.94;5067293;28;20638;-59
2023/01/16 07:41:13;;;;;;;40.33;22.43;;;;;;;6.71;100.00;99202.28;5065294;28;20188;-59
2023/01/16 07:43:41;;;;;;;39.03;23.00;;;;;;;6.76;100.00;99196.19;5067906;28;20666;-59
2023/01/16 07:46:09;;;;;;;37.60;22.50;;;;;;;6.89;100.00;99196.78;5067562;28;20212;-59
2023/01/16 07:48:36;;;;;;;44.07;23.57;;;;;;;6.89;100.00;99199.34;5068041;28;20587;-61
2023/01/16 07:51:03;;;;;;;47.97;23.80;;;;;;;6.78;100.00;99194.41;5071123;28;20200;-62
2023/01/16 07:53:30;;;;;;;45.40;23.47;;;;;;;6.77;100.00;99197.03;5072544;28;20270;-61
2023/01/16 07:55:59;;;;;;;36.57;21.33;;;;;;;6.67;100.00;99180.00;5070445;28;20200;-61
2023/01/16 07:58:27;;;;;;;39.37;21.73;;;;;;;6.62;100.00;99164.63;5070395;28;20192;-60
2023/01/16 08:00:55;;;;;;;42.97;21.50;;;;;;;6.76;100.00;99178.13;5067802;28;20203;-60
2023/01/16 08:03:24;;;;;;;33.67;19.27;;;;;;;6.85;100.00;99180.53;5070444;28;20257;-61
2023/01/16 08:05:56;;;;;;;40.70;21.10;;;;;;;6.62;100.00;99172.38;5070077;28;20199;-60
2023/01/16 08:08:25;;;;;;;41.80;21.90;;;;;;;6.68;100.00;99190.28;5070073;28;20195;-60
2023/01/16 08:10:54;;;;;;;38.37;20.97;;;;;;;6.80;100.00;99196.94;5071526;28;20283;-61
2023/01/16 08:13:21;;;;;;;39.23;20.07;;;;;;;6.81;100.00;99211.53;5071006;28;20204;-60
2023/01/16 08:15:48;;;;;;;42.47;21.30;;;;;;;6.87;100.00;99224.34;5071225;28;20202;-59
2023/01/16 08:18:15;;;;;;;47.77;20.37;;;;;;;6.81;100.00;99230.47;5071563;28;20199;-59
2023/01/16 08:20:44;;;;;;;45.77;21.50;;;;;;;6.86;100.00;99246.72;5071224;28;20594;-59
2023/01/16 08:23:11;;;;;;;45.13;20.63;;;;;;;6.84;100.00;99237.28;5068512;28;20214;-59
2023/01/16 08:25:38;;;;;;;44.67;20.63;;;;;;;6.90;100.00;99239.75;5065741;28;20289;-59
2023/01/16 08:28:06;;;;;;;50.60;21.70;;;;;;;6.77;100.00;99235.72;5069176;28;20741;-61
2023/01/16 08:30:33;;;;;;;48.20;22.90;;;;;;;6.76;100.00;99226.28;5068521;28;20196;-60
2023/01/16 08:33:00;;;;;;;46.10;21.17;;;;;;;6.64;100.00;99216.19;5067760;28;20287;-59
2023/01/16 08:35:27;;;;;;;48.10;22.07;;;;;;;6.81;100.00;99214.97;5069324;28;20199;-61
2023/01/16 08:37:55;;;;;;;46.73;22.73;;;;;;;6.88;100.00;99215.72;5069363;28;20196;-61
2023/01/16 08:40:22;;;;;;;48.07;22.90;;;;;;;6.95;100.00;99204.41;5069304;28;20218;-59
2023/01/16 08:51:23;;;;;;;47.80;24.07;;;;;;;7.17;100.00;99213.44;5067886;28;20207;-61
2023/01/16 08:53:53;;;;;;;51.40;24.50;;;;;;;7.42;100.00;99213.78;5068909;28;20228;-63
2023/01/16 08:56:20;;;;;;;49.03;24.43;;;;;;;7.48;100.00;99189.56;5067325;28;20196;-60
2023/01/16 08:58:47;;;;;;;61.67;29.47;;;;;;;7.44;100.00;99186.22;5069387;28;20234;-60
2023/01/16 09:01:15;;;;;;;46.57;22.73;;;;;;;7.39;100.00;99190.59;5069462;28;20204;-61
2023/01/16 09:03:42;;;;;;;49.07;23.57;;;;;;;7.38;100.00;99191.50;5068046;28;20697;-60
2023/01/16 09:06:09;;;;;;;41.27;22.27;;;;;;;7.23;100.00;99179.75;5070108;28;20196;-61
2023/01/16 09:08:35;;;;;;;66.53;35.30;;;;;;;7.23;100.00;99182.31;5069893;28;20668;-60
2023/01/16 09:13:51;;;;;;;62.03;32.20;;;;;;;7.37;100.00;99186.34;5068393;28;20195;-59
2023/01/16 09:16:19;;;;;;;44.37;21.53;;;;;;;7.00;100.00;99175.94;5069367;28;20204;-60
2023/01/16 09:18:46;;;;;;;59.67;31.17;;;;;;;6.92;100.00;99178.66;5069691;28;20620;-59
2023/01/16 09:21:13;;;;;;;38.27;22.37;;;;;;;7.11;100.00;99167.09;5070077;28;20227;-60
2023/01/16 09:23:41;;;;;;;55.20;27.07;;;;;;;7.22;100.00;99159.97;5069109;28;20419;-58
2023/01/16 09:26:09;;;;;;;45.60;24.80;;;;;;;7.24;100.00;99163.38;5069215;28;20694;-60
2023/01/16 09:28:36;;;;;;;49.90;25.43;;;;;;;7.23;100.00;99155.66;5068694;28;20188;-60
2023/01/16 09:31:03;;;;;;;47.13;25.23;;;;;;;7.17;100.00;99156.66;5066840;28;20202;-60
2023/01/16 09:33:30;;;;;;;58.20;27.33;;;;;;;7.19;100.00;99149.72;5068879;28;20280;-60
2023/01/16 09:35:57;;;;;;;66.60;40.63;;;;;;;7.31;100.00;99147.78;5069113;28;20199;-62
2023/01/16 09:38:24;;;;;;;38.07;22.27;;;;;;;7.31;100.00;99143.47;5068931;28;20557;-60
2023/01/16 09:40:56;;;;;;;34.97;21.00;;;;;;;7.14;100.00;99125.75;5068915;28;20200;-59
2023/01/16 09:43:36;;;;;;;37.47;21.77;;;;;;;7.16;100.00;99139.47;5066506;28;20223;-59
2023/01/16 09:46:06;;;;;;;39.10;22.20;;;;;;;7.20;100.00;99123.03;5068965;28;20729;-59
2023/01/16 09:48:36;;;;;;;40.17;21.60;;;;;;;7.06;100.00;99112.16;5068856;28;20214;-59
2023/01/16 09:51:07;;;;;;;45.57;24.40;;;;;;;6.99;100.00;99109.75;5068688;28;20580;-59
2023/01/16 09:59:30;;;;;;;53.60;28.07;;;;;;;7.23;100.00;99094.56;5008058;28;20190;-60
2023/01/16 10:02:06;;;;;;;55.00;27.07;;;;;;;7.24;100.00;99093.69;5054817;28;20202;-60
2023/01/16 10:04:33;;;;;;;50.90;28.97;;;;;;;7.20;100.00;99094.66;5069838;28;20191;-59
2023/01/16 10:07:19;;;;;;;60.33;31.73;;;;;;;7.27;100.00;99091.03;5069372;28;20226;-60
2023/01/16 10:09:57;;;;;;;52.47;27.50;;;;;;;7.17;100.00;99083.53;5067199;28;20196;-61
2023/01/16 10:12:31;;;;;;;47.33;26.43;;;;;;;7.22;100.00;99082.53;5068986;28;20584;-60
2023/01/16 10:15:15;;;;;;;49.03;26.33;;;;;;;6.99;100.00;99065.88;5070162;28;20694;-60
2023/01/16 10:17:53;;;;;;;41.33;23.90;;;;;;;7.15;100.00;99077.56;5069767;28;20284;-59
2023/01/16 10:20:45;;;;;;;39.23;22.83;;;;;;;7.25;100.00;99081.63;5070666;28;20601;-59
2023/01/16 10:23:31;;;;;;;41.23;22.67;;;;;;;7.21;100.00;99074.84;5069994;28;20229;-59
2023/01/16 10:26:07;;;;;;;41.73;22.87;;;;;;;7.30;100.00;99074.63;5069557;28;20202;-60
2023/01/16 10:28:48;;;;;;;42.47;24.07;;;;;;;7.43;100.00;99070.91;5069526;28;20729;-59
2023/01/16 10:31:21;;;;;;;40.80;23.97;;;;;;;7.40;100.00;99075.28;5069877;28;20687;-60
2023/01/16 10:33:55;;;;;;;46.87;26.73;;;;;;;7.39;100.00;99060.66;5069899;28;20676;-61
2023/01/16 10:36:27;;;;;;;41.17;24.73;;;;;;;7.43;100.00;99054.56;5069991;28;20641;-59
2023/01/16 10:38:58;;;;;;;36.17;22.87;;;;;;;7.44;100.00;99056.25;5068669;28;20196;-60
2023/01/16 10:49:57;;;;;;;41.30;25.27;;;;;;;6.80;100.00;99035.31;5069034;28;20233;-59
2023/01/16 10:52:25;;;;;;;42.83;25.13;;;;;;;6.81;100.00;99033.56;5068909;28;20288;-61
2023/01/16 10:54:52;;;;;;;48.10;26.70;;;;;;;6.91;100.00;99019.59;5069088;28;20211;-60
2023/01/16 10:57:20;;;;;;;53.60;28.27;;;;;;;6.80;100.00;99004.34;5069238;28;20206;-60
2023/01/16 10:59:51;;;;;;;71.43;35.07;;;;;;;6.92;100.00;99011.81;5068969;28;20643;-59
2023/01/16 11:02:29;;;;;;;56.47;30.70;;;;;;;7.05;100.00;99004.66;5066198;28;20850;-59
2023/01/16 11:04:56;;;;;;;46.73;25.03;;;;;;;6.92;100.00;99011.81;5065594;28;20204;-60
2023/01/16 11:07:25;;;;;;;42.93;25.23;;;;;;;6.98;100.00;99010.84;5067590;28;20303;-61
2023/01/16 11:09:52;;;;;;;37.00;22.30;;;;;;;7.06;100.00;98990.88;5065183;28;20196;-60
2023/01/16 11:18:30;;;;;;;36.57;21.27;;;;;;;6.94;100.00;98986.00;5067127;28;20222;-59
2023/01/16 11:21:00;;;;;;;35.07;20.47;;;;;;;6.68;100.00;98980.56;5066107;28;20210;-62
2023/01/16 11:23:34;;;;;;;43.87;23.23;;;;;;;6.63;100.00;98977.25;5067063;28;20649;-59
2023/01/16 11:26:02;;;;;;;40.17;22.50;;;;;;;6.55;100.00;98978.22;5068665;28;20711;-61
2023/01/16 11:28:31;;;;;;;39.87;23.77;;;;;;;6.56;100.00;98976.50;5069968;28;20211;-61
2023/01/16 11:31:03;;;;;;;39.33;21.40;;;;;;;6.64;100.00;98973.78;5070102;28;20188;-60
2023/01/16 11:33:38;;;;;;;37.83;22.30;;;;;;;6.67;100.00;98968.53;5070108;28;20212;-61
2023/01/16 11:36:06;;;;;;;44.20;21.97;;;;;;;6.80;100.00;98972.56;5070266;28;20200;-60
2023/01/16 11:38:37;;;;;;;49.70;24.03;;;;;;;6.78;100.00;98966.56;5070127;28;20283;-61
2023/01/16 11:41:08;;;;;;;42.03;21.97;;;;;;;6.76;100.00;98964.06;5070356;28;20296;-59
2023/01/16 11:46:32;;;;;;;47.30;24.17;;;;;;;6.60;100.00;98951.50;5069707;28;20202;-58
2023/01/16 11:49:02;;;;;;;49.40;25.43;;;;;;;6.61;100.00;98963.53;5069928;28;20306;-58
2023/01/16 11:51:31;;;;;;;48.33;24.40;;;;;;;6.52;100.00;98956.84;5069427;28;20200;-58
2023/01/16 11:53:59;;;;;;;43.60;22.63;;;;;;;6.67;100.00;98958.22;5069703;28;20210;-60
2023/01/16 11:56:47;;;;;;;36.27;20.43;;;;;;;6.60;100.00;98957.53;5069323;28;20594;-59
2023/01/16 11:59:45;;;;;;;40.90;20.60;;;;;;;6.74;100.00;98958.06;5067229;28;20195;-59
2023/01/16 12:02:25;;;;;;;41.47;21.70;;;;;;;6.84;100.00;98953.56;5069226;28;20672;-58
2023/01/16 12:08:09;;;;;;;43.70;23.00;;;;;;;6.84;100.00;98913.13;5068981;28;20726;-60
2023/01/16 12:10:45;;;;;;;45.70;24.50;;;;;;;7.14;100.00;98939.06;5069070;28;20196;-59
2023/01/16 12:16:08;;;;;;;44.93;23.23;;;;;;;7.11;100.00;98945.16;5069463;28;20199;-61
2023/01/16 12:18:46;;;;;;;43.37;21.97;;;;;;;7.11;100.00;98934.84;5067956;28;20197;-60
2023/01/16 12:21:26;;;;;;;45.50;23.00;;;;;;;7.19;100.00;98921.75;5067684;28;20198;-60
2023/01/16 12:24:12;;;;;;;42.93;22.27;;;;;;;7.04;100.00;98917.81;5067812;28;20698;-60
2023/01/16 12:26:48;;;;;;;47.90;23.53;;;;;;;6.97;100.00;98924.03;5068217;28;20192;-60